Latest Weather Observations for Swan Hill

IDV60801

Issued at 6:42 am EDT Saturday 16 October 2021 (issued every 10 minutes, with the page automatically refreshed every 10 minutes)

About weather observations | Map of weather stations | Latest weather observations for VIC | Other Formats
Station Details ID: 077094 Name: SWAN HILL AERODROME Lat: -35.38 Lon: 143.54 Height: 71.0 m
Data from the previous 72 hours. | See also: Recent months at Swan Hill
Date/Time
EDT
Temp
°C
App
Temp
°C
Dew
Point
°C
Rel
Hum
%
Delta-T
°C
Wind Press
QNH
hPa
Press
MSL
hPa
Rain since
9am
mm
Dir  Spd
km/h
Gust
km/h
Spd
kts
Gust
kts
16/06:30am 8.3 3.3 6.6 89 0.8 WSW 22 28 12 15 1010.5 1010.4 0.0
16/06:00am 8.3 2.2 6.8 90 0.7 WSW 28 35 15 19 1010.0 1009.9 0.0
16/05:30am 8.3 1.9 6.8 90 0.7 WSW 30 37 16 20 1009.5 1009.4 0.0
16/05:00am 8.2 2.9 6.8 91 0.7 WSW 24 32 13 17 1009.3 1009.2 0.0
16/04:30am 8.2 2.6 7.0 92 0.6 WSW 26 32 14 17 1009.2 1009.1 0.0
16/04:00am 8.4 3.1 7.0 91 0.7 WSW 24 33 13 18 1009.1 1009.0 0.0
16/03:30am 8.6 3.4 7.2 91 0.7 WSW 24 32 13 17 1009.3 1009.2 0.0
16/03:00am 8.8 2.9 7.4 91 0.7 WSW 28 35 15 19 1009.0 1008.9 0.0
16/02:30am 9.0 4.8 7.5 90 0.7 W 19 24 10 13 1009.2 1009.1 0.0
16/02:00am 9.2 4.0 7.3 88 0.9 W 24 33 13 18 1009.2 1009.1 0.0
16/01:30am 9.3 4.1 7.3 87 0.9 WSW 24 32 13 17 1009.2 1009.1 0.0
16/01:00am 9.7 4.1 7.3 85 1.1 WSW 26 33 14 18 1009.3 1009.2 0.0
16/12:30am 9.9 3.2 7.2 83 1.3 WSW 32 37 17 20 1009.3 1009.2 0.0
16/12:00am 10.1 4.5 7.2 82 1.4 WSW 26 33 14 18 1009.3 1009.2 0.0
 
Date/Time
EDT
Temp
°C
App
Temp
°C
Dew
Point
°C
Rel
Hum
%
Delta-T
°C
Wind Press
QNH
hPa
Press
MSL
hPa
Rain since
9am
mm
Dir  Spd
km/h
Gust
km/h
Spd
kts
Gust
kts
15/11:30pm 10.2 5.3 6.9 80 1.6 WSW 22 28 12 15 1009.1 1009.0 0.0
15/11:00pm 10.6 5.3 6.9 78 1.8 WSW 24 30 13 16 1009.0 1008.9 0.0
15/10:30pm 11.2 5.1 6.7 74 2.1 WSW 28 37 15 20 1009.1 1009.0 0.0
15/10:00pm 12.5 5.9 6.1 65 3.0 SW 30 39 16 21 1008.8 1008.7 0.0
15/09:30pm 13.0 8.1 7.0 67 2.9 WSW 22 33 12 18 1008.4 1008.3 0.0
15/09:00pm 13.2 8.7 6.8 65 3.1 SW 20 28 11 15 1008.0 1007.9 0.0
15/08:30pm 13.9 6.7 6.0 59 3.8 WSW 33 46 18 25 1007.7 1007.6 0.0
15/08:00pm 14.2 7.3 7.3 63 3.4 WSW 33 43 18 23 1007.0 1006.9 0.0
15/07:30pm 13.9 8.6 8.3 69 2.8 WSW 26 33 14 18 1006.7 1006.6 0.0
15/07:00pm 14.5 7.6 7.3 62 3.6 WSW 33 41 18 22 1006.3 1006.2 0.0
15/06:30pm 15.1 8.8 7.4 60 3.8 SW 30 37 16 20 1006.1 1006.0 0.0
15/06:10pm 15.0 8.1 7.1 59 3.9 SW 33 52 18 28 1005.8 1005.7 0.0
15/06:00pm 16.0 8.7 7.0 55 4.5 WSW 35 48 19 26 1005.6 1005.5 0.0
15/05:30pm 16.8 9.1 7.2 53 4.8 SW 37 50 20 27 1005.1 1005.0 0.0
15/05:12pm 17.4 8.8 4.4 42 6.2 SW 39 57 21 31 1004.8 1004.7 0.0
15/05:00pm 17.6 9.3 4.2 41 6.4 WSW 37 54 20 29 1004.6 1004.5 0.0
15/04:59pm 17.8 9.8 4.0 40 6.5 WSW 35 54 19 29 1004.6 1004.5 0.0
15/04:30pm 19.0 10.5 3.2 35 7.4 WSW 37 50 20 27 1004.2 1004.1 0.0
15/04:16pm 19.0 11.1 4.4 38 7.0 WSW 35 57 19 31 1004.2 1004.1 0.0
15/04:00pm 18.9 10.9 3.9 37 7.2 WSW 35 52 19 28 1004.2 1004.1 0.0
15/03:53pm 18.7 12.0 5.5 42 6.5 WSW 30 48 16 26 1004.4 1004.3 0.0
15/03:30pm 16.2 12.2 4.9 47 5.4 SW 15 28 8 15 1004.5 1004.4 0.0
15/03:07pm 15.4 4.8 5.3 51 4.8 SW 50 69 27 37 1004.9 1004.8 0.0
15/03:00pm 16.9 7.9 4.6 44 5.9 SW 41 69 22 37 1004.7 1004.6 0.0
15/02:59pm 18.0 10.0 5.6 44 6.1 SW 37 69 20 37 1004.6 1004.5 0.0
15/02:56pm 18.9 11.8 5.4 41 6.6 WSW 32 50 17 27 1004.5 1004.4 0.0
15/02:30pm 18.0 11.2 5.2 43 6.2 SW 30 37 16 20 1004.7 1004.6 0.0
15/02:00pm 17.1 10.2 4.8 44 5.9 WSW 30 39 16 21 1004.8 1004.7 0.0
15/01:30pm 17.4 11.2 6.3 48 5.5 SW 28 39 15 21 1004.9 1004.8 0.0
15/01:00pm 17.4 11.9 5.7 46 5.7 SW 24 37 13 20 1005.0 1004.9 0.0
15/12:30pm 16.8 11.1 5.1 46 5.6 SSW 24 33 13 18 1005.1 1005.0 0.0
15/12:00pm 16.0 10.3 5.0 48 5.2 SW 24 39 13 21 1005.4 1005.3 0.0
15/11:30am 15.5 10.8 6.0 53 4.6 SW 20 32 11 17 1005.4 1005.3 0.0
15/11:00am 15.4 10.5 6.7 56 4.3 SW 22 35 12 19 1005.6 1005.5 0.0
15/10:30am 14.8 10.8 6.6 58 4.0 SW 17 28 9 15 1005.7 1005.6 0.0
15/10:00am 13.8 9.7 6.2 60 3.7 SW 17 22 9 12 1005.7 1005.6 0.0
15/09:30am 13.0 9.2 7.5 69 2.7 SW 17 20 9 11 1005.7 1005.6 0.0
15/09:00am 11.7 8.9 8.6 81 1.5 SW 13 17 7 9 1005.4 1005.3 5.2
15/08:30am 10.5 8.2 10.3 99 0.1 SSW 13 19 7 10 1005.3 1005.2 5.2
15/08:00am 8.8 7.2 8.8 100 0.0 S 7 11 4 6 1005.0 1004.9 5.2
15/07:30am 7.4 5.7 7.4 100 0.0 S 6 7 3 4 1004.6 1004.5 5.2
15/07:00am 7.2 5.8 7.2 100 0.0 S 4 6 2 3 1004.0 1003.9 5.2
15/06:30am 7.7 5.8 7.7 100 0.0 S 7 9 4 5 1003.6 1003.4 5.2
15/06:00am 8.6 7.1 8.6 100 0.0 S 6 7 3 4 1003.2 1003.1 5.0
15/05:30am 9.0 7.6 9.0 100 0.0 S 6 7 3 4 1002.9 1002.8 5.0
15/05:00am 9.1 7.7 9.0 99 0.0 S 6 7 3 4 1002.7 1002.6 5.0
15/04:30am 9.5 8.3 9.4 99 0.0 S 6 7 3 4 1002.5 1002.4 5.0
15/04:00am 9.6 8.4 9.5 99 0.1 S 6 7 3 4 1002.6 1002.5 5.0
15/03:30am 9.9 9.5 9.8 99 0.1 ESE 2 7 1 4 1002.6 1002.5 5.0
15/03:00am 10.1 9.7 9.6 97 0.3 ESE 2 6 1 3 1002.6 1002.5 5.0
15/02:30am 10.1 8.8 9.8 98 0.2 ESE 7 7 4 4 1002.7 1002.6 5.0
15/02:00am 9.7 8.4 9.2 97 0.2 ESE 6 7 3 4 1002.8 1002.7 5.0
15/01:30am 10.0 8.8 9.5 97 0.3 ESE 6 7 3 4 1003.0 1002.9 5.0
15/01:00am 10.1 8.9 9.5 96 0.3 ESE 6 9 3 5 1003.3 1003.2 5.0
15/12:30am 10.2 9.1 9.9 98 0.2 ESE 6 9 3 5 1003.6 1003.4 5.0
15/12:00am 10.2 10.1 9.6 96 0.3 CALM 0 0 0 0 1003.8 1003.6 5.0
 
Date/Time
EDT
Temp
°C
App
Temp
°C
Dew
Point
°C
Rel
Hum
%
Delta-T
°C
Wind Press
QNH
hPa
Press
MSL
hPa
Rain since
9am
mm
Dir  Spd
km/h
Gust
km/h
Spd
kts
Gust
kts
14/11:30pm 10.3 9.0 9.8 97 0.3 ESE 7 11 4 6 1004.1 1004.0 5.0
14/11:00pm 10.5 9.1 9.4 93 0.6 ESE 7 9 4 5 1004.0 1003.9 4.8
14/10:30pm 10.4 9.6 9.6 95 0.4 ESE 4 9 2 5 1003.8 1003.6 4.8
14/10:00pm 10.5 10.4 9.3 92 0.6 CALM 0 0 0 0 1003.7 1003.5 4.8
14/09:30pm 10.6 10.4 9.0 90 0.8 CALM 0 0 0 0 1003.9 1003.8 4.8
14/09:00pm 10.6 8.9 8.5 87 1.0 ESE 7 9 4 5 1003.7 1003.5 4.8
14/08:30pm 10.7 9.1 8.8 88 0.9 ESE 7 9 4 5 1003.7 1003.5 4.8
14/08:00pm 10.6 8.7 9.0 90 0.8 ESE 9 11 5 6 1003.7 1003.5 4.8
14/07:30pm 10.8 8.8 8.7 87 1.0 ESE 9 13 5 7 1003.9 1003.8 4.8
14/07:00pm 11.1 9.4 8.5 84 1.3 ESE 7 9 4 5 1004.0 1003.9 4.8
14/06:30pm 11.2 9.6 8.9 86 1.1 ESE 7 9 4 5 1003.8 1003.6 4.8
14/06:00pm 10.8 8.8 8.7 87 1.0 ESE 9 13 5 7 1003.7 1003.5 4.8
14/05:30pm 10.8 8.4 8.6 86 1.1 SE 11 22 6 12 1003.7 1003.5 4.6
14/05:00pm 10.8 8.3 9.6 92 0.6 S 13 19 7 10 1004.3 1004.2 3.8
14/04:30pm 11.0 6.2 8.8 86 1.1 WNW 24 30 13 16 1004.6 1004.5 1.4
14/04:09pm 12.2 7.8 6.7 69 2.6 NNW 19 41 10 22 1004.3 1004.2 1.0
14/04:00pm 13.9 12.0 7.4 65 3.2 E 7 11 4 6 1003.6 1003.4 1.0
14/03:30pm 14.3 11.6 7.4 63 3.4 ESE 11 15 6 8 1003.3 1003.2 1.0
14/03:00pm 14.5 10.5 6.8 60 3.8 ENE 17 26 9 14 1003.6 1003.4 1.0
14/02:30pm 14.6 12.3 7.4 62 3.6 E 9 15 5 8 1003.7 1003.5 1.0
14/02:00pm 12.4 8.1 7.9 74 2.2 NE 20 33 11 18 1003.9 1003.8 0.8
14/01:50pm 13.7 9.4 5.1 56 4.0 NE 17 46 9 25 1003.8 1003.6 0.2
14/01:40pm 15.6 12.0 6.6 55 4.4 NNE 15 24 8 13 1003.9 1003.8 0.0
14/01:30pm 15.8 12.6 8.3 61 3.8 NE 15 24 8 13 1003.9 1003.8 0.0
14/01:00pm 16.1 12.0 8.8 62 3.8 NE 20 28 11 15 1004.1 1004.0 0.0
14/12:30pm 16.2 13.0 10.1 67 3.2 NE 17 22 9 12 1004.5 1004.4 0.0
14/12:00pm 14.2 11.1 10.2 77 2.1 NE 17 24 9 13 1005.0 1004.9 0.0
14/11:57am 14.1 10.5 9.9 76 2.2 NE 19 22 10 12 1005.1 1005.0 0.0
14/11:30am 13.8 10.3 10.8 82 1.6 NE 20 30 11 16 1005.4 1005.3 0.0
14/11:00am 12.7 8.9 9.9 83 1.4 NE 20 30 11 16 1005.7 1005.6 0.0
14/10:30am 11.9 8.3 10.5 91 0.7 NNE 20 28 11 15 1005.8 1005.7 0.0
14/10:00am 11.0 7.5 10.8 99 0.1 NE 20 30 11 16 1005.6 1005.5 0.0
14/09:30am 10.2 6.5 10.2 100 0.0 NE 20 26 11 14 1005.6 1005.5 0.0
14/09:00am 10.6 7.6 10.6 100 0.0 NE 17 26 9 14 1005.5 1005.4 6.8
14/08:54am 10.6 8.0 10.6 100 0.0 NE 15 20 8 11 1005.5 1005.4 6.8
14/08:44am 10.1 6.6 10.1 100 0.0 NE 19 24 10 13 1005.4 1005.3 6.8
14/08:30am 10.1 7.3 10.1 100 0.0 NE 15 20 8 11 1005.4 1005.3 6.8
14/08:09am 8.8 5.7 8.8 100 0.0 NE 15 20 8 11 1005.6 1005.5 6.8
14/08:00am 8.5 5.3 8.5 100 0.0 NE 15 20 8 11 1005.5 1005.4 6.8
14/07:45am 8.2 5.3 8.2 100 0.0 NE 13 22 7 12 1005.6 1005.5 6.8
14/07:30am 8.1 4.4 8.1 100 0.0 NE 17 24 9 13 1005.5 1005.4 6.8
14/07:00am 7.6 4.6 7.6 100 0.0 NE 13 17 7 9 1005.5 1005.4 6.8
14/06:30am 6.9 4.1 6.9 100 0.0 NE 11 15 6 8 1005.4 1005.3 6.8
14/06:00am 6.7 4.6 6.7 100 0.0 NE 7 9 4 5 1005.3 1005.2 6.8
14/05:30am 7.2 4.1 7.2 100 0.0 NE 13 17 7 9 1005.2 1005.1 6.8
14/05:29am 7.2 4.1 7.2 100 0.0 NE 13 17 7 9 1005.2 1005.1 6.8
14/05:27am 7.2 4.1 7.2 100 0.0 NE 13 17 7 9 1005.3 1005.2 6.8
14/05:25am 7.2 4.1 7.2 100 0.0 NE 13 17 7 9 1005.4 1005.3 6.8
14/05:00am 7.1 4.0 7.1 100 0.0 NE 13 15 7 8 1005.3 1005.2 6.6
14/04:30am 7.4 4.7 7.4 100 0.0 ENE 11 13 6 7 1005.4 1005.3 6.6
14/04:03am 7.6 4.6 7.6 100 0.0 ENE 13 17 7 9 1005.5 1005.4 6.6
14/04:00am 7.5 4.5 7.5 100 0.0 ENE 13 17 7 9 1005.5 1005.4 6.6
14/03:59am 7.5 4.5 7.5 100 0.0 ENE 13 17 7 9 1005.5 1005.4 6.6
14/03:47am 7.2 4.1 7.2 100 0.0 SE 13 15 7 8 1005.5 1005.4 6.6
14/03:30am 6.8 4.7 6.7 99 0.0 SSE 7 9 4 5 1005.6 1005.5 6.6
14/03:13am 6.7 4.8 6.6 99 0.0 SSE 6 7 3 4 1005.7 1005.6 6.6
14/03:03am 7.0 5.1 6.9 99 0.0 SSE 6 7 3 4 1005.9 1005.8 6.6
14/03:00am 7.3 5.5 7.2 99 0.0 SSE 6 7 3 4 1005.9 1005.8 6.6
14/02:30am 7.4 5.1 7.3 99 0.0 SSE 9 13 5 7 1006.0 1005.9 6.6
14/02:22am 7.3 5.5 7.2 99 0.0 SSE 6 11 3 6 1006.2 1006.1 6.6
14/02:21am 7.4 5.6 7.3 99 0.0 SSE 6 11 3 6 1006.2 1006.1 6.6
14/02:18am 7.5 6.1 7.4 99 0.0 SSE 4 6 2 3 1006.2 1006.1 6.6
14/02:06am 7.8 6.5 7.7 99 0.0 SSE 4 9 2 5 1006.3 1006.2 6.6
14/02:01am 7.7 7.1 7.6 99 0.0 CALM 0 0 0 0 1006.3 1006.2 6.6
14/02:00am 7.7 7.1 7.6 99 0.0 CALM 0 0 0 0 1006.3 1006.2 6.6
14/01:30am 8.5 8.1 8.4 99 0.0 CALM 0 0 0 0 1006.6 1006.5 6.6
14/01:00am 8.4 6.7 8.3 99 0.0 SSE 7 9 4 5 1006.6 1006.5 6.6
14/12:52am 8.5 7.0 8.4 99 0.0 SSE 6 9 3 5 1006.7 1006.6 6.6
14/12:37am 8.4 6.7 8.3 99 0.0 SSE 7 9 4 5 1006.7 1006.6 6.6
14/12:30am 8.5 7.0 8.4 99 0.0 SSE 6 9 3 5 1006.7 1006.6 6.6
14/12:29am 8.6 7.1 8.5 99 0.0 SSE 6 7 3 4 1006.8 1006.7 6.6
14/12:17am 8.7 8.0 8.6 99 0.0 SSE 2 6 1 3 1006.9 1006.8 6.6
14/12:00am 9.1 8.1 8.8 98 0.1 SSE 4 7 2 4 1006.8 1006.7 6.6
 
Date/Time
EDT
Temp
°C
App
Temp
°C
Dew
Point
°C
Rel
Hum
%
Delta-T
°C
Wind Press
QNH
hPa
Press
MSL
hPa
Rain since
9am
mm
Dir  Spd
km/h
Gust
km/h
Spd
kts
Gust
kts
13/11:30pm 9.7 9.5 9.2 97 0.2 CALM 0 0 0 0 1006.8 1006.7 6.6
13/11:00pm 10.4 9.3 9.8 96 0.3 SSE 6 7 3 4 1007.1 1007.0 6.6
13/10:30pm 10.6 10.6 9.8 95 0.4 CALM 0 0 0 0 1007.0 1006.9 6.6
13/10:00pm 10.7 9.4 9.9 95 0.4 SSE 7 11 4 6 1006.9 1006.8 6.4
13/09:30pm 10.8 9.1 9.7 93 0.6 SW 9 13 5 7 1006.6 1006.5 6.4
13/09:00pm 11.1 7.8 9.5 90 0.8 WNW 17 22 9 12 1007.6 1007.5 5.2
13/08:30pm 11.6 6.8 10.2 91 0.7 NW 26 35 14 19 1007.6 1007.5 3.6
13/08:00pm 11.5 7.1 10.4 93 0.6 NW 24 33 13 18 1007.2 1007.1 3.0
13/07:30pm 11.8 6.9 10.0 89 0.9 W 26 35 14 19 1006.3 1006.2 2.2
13/07:00pm 11.7 7.3 10.4 92 0.7 W 24 33 13 18 1006.4 1006.3 1.6
13/06:30pm 11.7 6.7 10.8 94 0.5 W 28 37 15 20 1005.9 1005.8 0.8
13/06:00pm 12.1 5.7 10.7 91 0.7 WSW 35 52 19 28 1005.6 1005.5 0.4
13/05:30pm 12.6 4.6 10.5 87 1.1 WSW 43 59 23 32 1005.4 1005.3 0.0
13/05:21pm 12.9 5.6 10.1 83 1.4 WSW 39 59 21 32 1005.3 1005.2 0.0
13/05:00pm 13.5 5.9 9.0 74 2.3 WSW 39 50 21 27 1004.9 1004.8 0.0
13/04:52pm 14.5 6.4 6.8 60 3.8 WSW 39 57 21 31 1004.7 1004.6 0.0
13/04:30pm 16.6 9.6 4.0 43 5.9 W 30 50 16 27 1003.9 1003.8 0.0
13/04:24pm 19.8 14.1 2.6 32 8.0 NNW 22 46 12 25 1003.7 1003.5 0.0
13/04:00pm 21.2 16.5 3.4 31 8.6 NNE 17 24 9 13 1003.1 1003.0 0.0
13/03:30pm 21.9 15.2 1.6 26 9.4 N 26 35 14 19 1003.5 1003.3 0.0
13/03:00pm 22.3 15.6 1.3 25 9.8 N 26 39 14 21 1004.0 1003.9 0.0
13/02:30pm 22.8 18.0 5.7 33 8.6 NNE 20 37 11 20 1004.5 1004.4 0.0
13/02:00pm 21.6 16.8 7.4 40 7.4 NNE 22 32 12 17 1005.0 1004.9 0.0
13/01:30pm 21.6 15.8 8.1 42 7.1 NNE 28 41 15 22 1005.4 1005.3 0.0
13/01:00pm 21.6 16.2 9.5 46 6.5 NNE 28 39 15 21 1005.8 1005.7 0.0
13/12:30pm 20.7 15.4 9.9 50 5.8 NE 28 39 15 21 1006.6 1006.5 0.0
13/12:00pm 19.6 14.2 9.5 52 5.4 NE 28 39 15 21 1007.0 1006.9 0.0
13/11:30am 18.8 13.0 9.6 55 4.9 NE 30 39 16 21 1007.7 1007.6 0.0
13/11:00am 17.8 12.0 9.4 58 4.4 NE 30 39 16 21 1008.2 1008.1 0.0
13/10:30am 17.3 10.6 9.7 61 4.0 NE 35 46 19 25 1008.7 1008.6 0.0
13/10:00am 16.2 9.4 9.4 64 3.5 NE 35 44 19 24 1008.9 1008.8 0.0
13/09:30am 15.7 9.4 9.6 67 3.2 NE 33 50 18 27 1009.1 1009.0 0.0
13/09:00am 14.9 8.1 9.3 69 2.9 NNE 35 48 19 26 1009.6 1009.5 0.0
13/08:35am 14.3 8.8 9.1 71 2.7 NNE 28 46 15 25 1009.7 1009.6 0.0
13/08:30am 14.3 8.8 9.3 72 2.6 NNE 28 41 15 22 1009.9 1009.8 0.0
13/08:00am 13.3 7.8 9.2 76 2.1 NNE 28 37 15 20 1009.8 1009.7 0.0
13/07:30am 12.6 8.3 9.4 81 1.6 NE 22 30 12 16 1009.8 1009.7 0.0
13/07:00am 11.9 8.0 9.5 85 1.2 NE 20 28 11 15 1009.5 1009.4 0.0

Other formats

Comma delimited format used in spreadsheet applications
http://www.bom.gov.au/fwo/IDV60801/IDV60801.94843.axf

JavaScript Object Notation format (JSON) in row-major order
http://www.bom.gov.au/fwo/IDV60801/IDV60801.94843.json

Data quality

Most of these data are generated automatically and are frequently updated. Quality checks on data are not normally performed. It is possible for incorrect values to appear. Refer to information at About Latest Weather Observations and please check the disclaimer before using these data.